Time;durP1;ratioP1;P1;durP2;ratioP2;P2;SDS_P1;SDS_P2;PMS_P1;PMS_P2;Temp;Humidity;BMP_temperature;BMP_pressure;BME280_temperature;BME280_humidity;BME280_pressure;Samples;Min_cycle;Max_cycle;Signal;HPM_P1;HPM_P2
2022/09/29 00:01:23;;;;;;;6.85;3.20;;;;;;;6.69;100.00;99989.31;4894016;29;20052;-80
2022/09/29 00:03:52;;;;;;;3.00;2.83;;;;;;;6.70;100.00;99993.66;4870273;29;20044;-80
2022/09/29 00:06:23;;;;;;;5.55;3.25;;;;;;;6.68;100.00;99984.94;4875807;29;20048;-80
2022/09/29 00:08:52;;;;;;;3.83;3.42;;;;;;;6.68;100.00;99987.56;4903425;29;20052;-79
2022/09/29 00:11:20;;;;;;;3.72;3.40;;;;;;;6.69;100.00;99994.56;4890122;29;20282;-79
2022/09/29 00:13:49;;;;;;;3.83;3.50;;;;;;;6.68;100.00;99991.94;4894124;29;20048;-80
2022/09/29 00:16:17;;;;;;;3.95;3.65;;;;;;;6.71;100.00;99994.53;4874476;29;20307;-80
2022/09/29 00:18:45;;;;;;;5.80;3.58;;;;;;;6.71;100.00;99991.91;4867235;29;20502;-79
2022/09/29 00:21:18;;;;;;;4.38;3.97;;;;;;;6.71;100.00;100002.38;4856147;29;20052;-80
2022/09/29 00:23:48;;;;;;;3.60;3.30;;;;;;;6.70;100.00;99995.41;4900212;29;20111;-79
2022/09/29 00:26:20;;;;;;;3.38;3.10;;;;;;;6.71;100.00;99997.16;4869158;29;20052;-79
2022/09/29 00:28:57;;;;;;;3.20;3.00;;;;;;;6.70;100.00;100000.66;4887136;29;20060;-79
2022/09/29 00:31:29;;;;;;;3.78;3.42;;;;;;;6.70;100.00;99995.41;4907249;29;20079;-79
2022/09/29 00:33:57;;;;;;;4.97;3.25;;;;;;;6.69;100.00;99994.56;4863711;29;20044;-80
2022/09/29 00:36:29;;;;;;;3.35;3.05;;;;;;;6.66;100.00;99989.28;4864656;29;21439;-80
2022/09/29 00:38:59;;;;;;;3.55;3.35;;;;;;;6.65;100.00;100003.22;4867497;29;20427;-80
2022/09/29 00:41:30;;;;;;;3.50;3.20;;;;;;;6.62;100.00;99992.75;4894881;29;20541;-79
2022/09/29 00:44:11;;;;;;;3.40;3.10;;;;;;;6.62;100.00;99995.38;4876909;29;20044;-78
2022/09/29 00:46:52;;;;;;;5.60;3.60;;;;;;;6.60;100.00;99989.25;4910408;29;20048;-79
2022/09/29 00:49:42;;;;;;;7.00;3.85;;;;;;;6.60;100.00;99999.75;4877466;29;20299;-81
2022/09/29 00:52:18;;;;;;;4.00;3.70;;;;;;;6.59;100.00;99996.22;4896903;29;20395;-81
2022/09/29 00:54:54;;;;;;;4.22;3.83;;;;;;;6.59;100.00;99998.84;4885906;29;20048;-81
2022/09/29 00:57:28;;;;;;;4.03;3.35;;;;;;;6.59;100.00;99997.97;4889520;29;20047;-81
2022/09/29 01:00:04;;;;;;;3.35;3.05;;;;;;;6.57;100.00;99997.97;4892271;29;20059;-81
2022/09/29 01:02:36;;;;;;;3.60;3.38;;;;;;;6.54;100.00;99995.34;4908423;29;20056;-81
2022/09/29 01:05:10;;;;;;;3.60;3.13;;;;;;;6.54;100.00;100000.56;4866033;29;20056;-82
2022/09/29 01:07:40;;;;;;;5.50;3.60;;;;;;;6.51;100.00;99997.94;4877281;29;20052;-81
2022/09/29 01:10:10;;;;;;;4.78;3.60;;;;;;;6.51;100.00;99992.69;4852743;29;20049;-81
2022/09/29 01:12:38;;;;;;;4.50;3.67;;;;;;;6.51;100.00;99995.31;4890036;29;20060;-81
2022/09/29 01:15:08;;;;;;;5.60;5.05;;;;;;;6.51;100.00;99997.94;4874755;29;20055;-79
2022/09/29 01:17:38;;;;;;;4.13;3.83;;;;;;;6.52;100.00;99998.78;4891947;29;20048;-78
2022/09/29 01:20:20;;;;;;;5.57;4.32;;;;;;;6.51;100.00;99997.06;4840026;29;20048;-79
2022/09/29 01:23:34;;;;;;;5.22;4.72;;;;;;;6.49;100.00;99991.81;4898897;29;20059;-79
2022/09/29 01:26:25;;;;;;;5.70;4.25;;;;;;;6.48;100.00;99991.78;4877109;29;20056;-79
2022/09/29 01:29:02;;;;;;;4.40;4.10;;;;;;;6.47;100.00;100000.53;4906450;29;20056;-80
2022/09/29 01:31:41;;;;;;;5.25;4.75;;;;;;;6.46;100.00;100009.22;4890126;29;20149;-78
2022/09/29 01:34:27;;;;;;;4.63;4.22;;;;;;;6.42;100.00;99995.25;4889624;29;20052;-79
2022/09/29 01:37:07;;;;;;;4.97;4.57;;;;;;;6.41;100.00;100003.97;4876722;29;20051;-80
2022/09/29 01:39:58;;;;;;;5.97;5.38;;;;;;;6.41;100.00;100003.97;4889603;29;20049;-79
2022/09/29 01:42:38;;;;;;;4.85;4.45;;;;;;;6.38;100.00;100001.34;4903442;29;20168;-79
2022/09/29 01:45:24;;;;;;;4.60;4.20;;;;;;;6.39;100.00;100003.06;4890334;29;20048;-80
2022/09/29 01:47:58;;;;;;;5.82;4.70;;;;;;;6.38;100.00;100001.34;4909800;29;20051;-80
2022/09/29 01:50:33;;;;;;;4.47;4.15;;;;;;;6.36;100.00;100008.31;4875022;29;20040;-79
2022/09/29 01:53:13;;;;;;;4.22;3.90;;;;;;;6.31;100.00;100005.63;4860769;29;20051;-80
2022/09/29 01:56:05;;;;;;;5.82;4.57;;;;;;;6.26;100.00;100002.13;4868650;29;20044;-79
2022/09/29 01:58:57;;;;;;;7.68;5.53;;;;;;;6.23;100.00;100010.81;4891153;29;20055;-79
2022/09/29 02:01:31;;;;;;;4.90;4.35;;;;;;;6.23;100.00;100002.09;4889763;29;20548;-79
2022/09/29 02:04:23;;;;;;;3.80;3.50;;;;;;;6.22;100.00;100009.09;4891130;29;20059;-79
2022/09/29 02:07:00;;;;;;;4.65;4.25;;;;;;;6.20;100.00;99995.13;4893047;29;20052;-79
2022/09/29 02:09:34;;;;;;;4.93;4.45;;;;;;;6.19;100.00;100008.19;4862520;29;20457;-79
2022/09/29 02:12:04;;;;;;;5.47;4.97;;;;;;;6.16;100.00;100011.66;4882837;29;20509;-80
2022/09/29 02:14:40;;;;;;;5.07;4.55;;;;;;;6.15;100.00;100006.41;4875270;29;20079;-79
2022/09/29 02:17:19;;;;;;;5.70;5.15;;;;;;;6.10;100.00;100010.72;4905466;29;20055;-80
2022/09/29 02:19:50;;;;;;;7.03;5.78;;;;;;;6.08;100.00;100010.69;4891173;29;20571;-79
2022/09/29 02:22:20;;;;;;;6.63;5.40;;;;;;;6.08;100.00;100010.69;4841785;29;20043;-79
2022/09/29 02:24:54;;;;;;;5.50;5.00;;;;;;;6.07;100.00;100008.06;4861454;29;20059;-79
2022/09/29 02:27:23;;;;;;;5.50;4.82;;;;;;;6.06;100.00;100001.97;4872289;29;21148;-79
2022/09/29 02:29:51;;;;;;;5.18;4.65;;;;;;;6.04;100.00;100008.94;4891968;29;20056;-79
2022/09/29 02:32:20;;;;;;;5.13;4.72;;;;;;;6.03;100.00;100005.44;4902082;29;20044;-80
2022/09/29 02:34:53;;;;;;;7.53;4.82;;;;;;;6.02;100.00;100015.88;4888722;29;20048;-79
2022/09/29 02:37:37;;;;;;;;;;;;;;;5.99;100.00;100006.28;4849100;29;20059;-79
2022/09/29 02:40:27;;;;;;;5.50;5.00;;;;;;;5.98;100.00;100003.66;4881156;29;19923;-79
2022/09/29 02:43:23;;;;;;;6.25;4.85;;;;;;;5.97;100.00;100002.78;4899588;29;20067;-79
2022/09/29 02:46:07;;;;;;;6.05;5.00;;;;;;;5.98;100.00;100009.75;4908321;29;20410;-79
2022/09/29 02:49:00;;;;;;;6.07;4.88;;;;;;;5.99;100.00;100015.84;4888201;29;20025;-79
2022/09/29 02:51:37;;;;;;;10.68;5.65;;;;;;;5.97;100.00;100004.50;4905669;29;20063;-80
2022/09/29 02:54:24;;;;;;;8.02;5.28;;;;;;;5.96;100.00;100008.00;4860231;29;20079;-81
2022/09/29 02:56:52;;;;;;;36.90;7.15;;;;;;;5.96;100.00;100021.06;4900814;29;20056;-80
2022/09/29 02:59:49;;;;;;;46.10;7.45;;;;;;;5.95;100.00;100019.28;4887013;29;20366;-80
2022/09/29 03:02:25;;;;;;;39.78;7.38;;;;;;;5.94;100.00;100012.31;4893792;29;20055;-80
2022/09/29 03:04:54;;;;;;;23.65;5.88;;;;;;;5.92;100.00;100014.03;4914102;29;20052;-80
2022/09/29 03:07:22;;;;;;;40.63;6.47;;;;;;;5.92;100.00;100020.13;4863596;29;20262;-79
2022/09/29 03:09:50;;;;;;;18.95;6.28;;;;;;;5.92;100.00;100017.53;4864763;29;20056;-79
2022/09/29 03:12:19;;;;;;;11.95;5.22;;;;;;;5.92;100.00;100029.72;4855578;29;20052;-79
2022/09/29 03:14:47;;;;;;;24.55;5.57;;;;;;;5.89;100.00;100025.31;4887939;29;20056;-79
2022/09/29 03:17:16;;;;;;;45.50;8.40;;;;;;;5.90;100.00;100026.19;4891245;29;20279;-80
2022/09/29 03:19:44;;;;;;;27.67;6.72;;;;;;;5.89;100.00;100021.84;4878689;29;20048;-79
2022/09/29 03:22:13;;;;;;;16.77;6.97;;;;;;;5.86;100.00;100020.97;4890777;29;20063;-79
2022/09/29 03:24:41;;;;;;;15.90;5.57;;;;;;;5.85;100.00;100027.03;4836752;29;20501;-79
2022/09/29 03:27:10;;;;;;;18.83;5.35;;;;;;;5.84;100.00;100027.00;4865257;29;20436;-79
2022/09/29 03:29:39;;;;;;;27.73;6.07;;;;;;;5.83;100.00;100031.38;4903808;29;20051;-78
2022/09/29 03:32:07;;;;;;;16.27;6.20;;;;;;;5.81;100.00;100034.84;4875731;29;20047;-79
2022/09/29 03:34:35;;;;;;;10.52;5.43;;;;;;;5.78;100.00;100030.44;4910675;29;20044;-79
2022/09/29 03:37:04;;;;;;;24.70;6.68;;;;;;;5.77;100.00;100040.91;4873580;29;20063;-80
2022/09/29 03:39:32;;;;;;;15.13;6.13;;;;;;;5.75;100.00;100034.81;4828932;29;20610;-79
2022/09/29 03:42:00;;;;;;;26.92;9.30;;;;;;;5.74;100.00;100033.91;4878414;29;20052;-79
2022/09/29 03:44:29;;;;;;;17.75;10.45;;;;;;;5.73;100.00;100040.00;4855313;29;20064;-79
2022/09/29 03:46:57;;;;;;;19.75;9.95;;;;;;;5.72;100.00;100032.16;4891528;29;20048;-79
2022/09/29 03:49:25;;;;;;;19.80;7.50;;;;;;;5.71;100.00;100036.50;4891519;29;20044;-79
2022/09/29 03:51:54;;;;;;;18.25;7.68;;;;;;;5.70;100.00;100024.28;4877342;29;20044;-79
2022/09/29 03:54:25;;;;;;;20.50;6.93;;;;;;;5.71;100.00;100033.00;4885459;29;20060;-79
2022/09/29 03:56:53;;;;;;;11.48;7.05;;;;;;;5.70;100.00;100026.91;4869220;29;20051;-80
2022/09/29 03:59:22;;;;;;;17.02;6.70;;;;;;;5.71;100.00;100035.59;4868052;29;20363;-80
2022/09/29 04:01:51;;;;;;;12.55;6.85;;;;;;;5.70;100.00;100029.50;4854401;29;20044;-79
2022/09/29 04:04:20;;;;;;;23.40;7.57;;;;;;;5.71;100.00;100033.88;4869014;29;20049;-79
2022/09/29 04:06:48;;;;;;;45.22;9.13;;;;;;;5.71;100.00;100036.50;4903317;29;20051;-78
2022/09/29 04:09:16;;;;;;;25.45;6.60;;;;;;;5.69;100.00;100042.56;4857219;29;20517;-81
2022/09/29 04:11:46;;;;;;;27.00;7.60;;;;;;;5.66;100.00;100038.19;4833144;29;20052;-79
2022/09/29 04:14:15;;;;;;;28.48;7.30;;;;;;;5.65;100.00;100032.09;4876874;29;20590;-79
2022/09/29 04:16:43;;;;;;;15.23;6.95;;;;;;;5.63;100.00;100044.28;4886330;29;20056;-79
2022/09/29 04:19:11;;;;;;;20.38;7.85;;;;;;;5.62;100.00;100041.63;4878732;29;20044;-80
2022/09/29 04:21:40;;;;;;;10.23;6.25;;;;;;;5.60;100.00;100044.22;4899033;29;20055;-79
2022/09/29 04:24:08;;;;;;;14.35;6.47;;;;;;;5.60;100.00;100049.44;4873906;29;20048;-81
2022/09/29 04:26:38;;;;;;;9.80;6.30;;;;;;;5.58;100.00;100050.31;4876837;29;20036;-80
2022/09/29 04:29:07;;;;;;;8.63;5.90;;;;;;;5.56;100.00;100045.06;4880076;29;20051;-80
2022/09/29 04:31:35;;;;;;;15.00;6.63;;;;;;;5.55;100.00;100045.03;4862534;29;20304;-80
2022/09/29 04:34:03;;;;;;;26.35;9.30;;;;;;;5.54;100.00;100051.13;4866039;29;20418;-81
2022/09/29 04:36:32;;;;;;;18.73;7.82;;;;;;;5.50;100.00;100046.72;4897121;29;20074;-80
2022/09/29 04:39:00;;;;;;;9.60;6.80;;;;;;;5.45;100.00;100044.94;4875772;29;20044;-81
2022/09/29 04:41:32;;;;;;;21.63;7.85;;;;;;;5.42;100.00;100044.88;4856973;29;20635;-80
2022/09/29 04:44:01;;;;;;;14.23;8.45;;;;;;;5.42;100.00;100050.13;4867727;29;20044;-81
2022/09/29 04:46:30;;;;;;;12.07;7.05;;;;;;;5.42;100.00;100044.03;4866820;29;20708;-79
2022/09/29 04:48:59;;;;;;;9.93;8.15;;;;;;;5.41;100.00;100048.38;4867086;29;20037;-80
2022/09/29 04:51:27;;;;;;;9.23;7.45;;;;;;;5.41;100.00;100053.59;4877636;29;20246;-80
2022/09/29 04:53:57;;;;;;;14.00;7.90;;;;;;;5.41;100.00;100047.50;4874140;29;20048;-80
2022/09/29 04:56:30;;;;;;;14.35;8.73;;;;;;;5.41;100.00;100061.44;4883808;29;20498;-79
2022/09/29 04:58:58;;;;;;;10.25;7.82;;;;;;;5.43;100.00;100053.63;4875488;29;20040;-79
2022/09/29 05:01:27;;;;;;;10.52;7.85;;;;;;;5.42;100.00;100055.34;4885109;29;20047;-79
2022/09/29 05:03:56;;;;;;;9.38;7.65;;;;;;;5.42;100.00;100060.56;4885969;29;20410;-80
2022/09/29 05:06:26;;;;;;;17.60;7.88;;;;;;;5.40;100.00;100061.41;4889899;29;20063;-79
2022/09/29 05:08:54;;;;;;;16.00;10.40;;;;;;;5.40;100.00;100066.66;4872546;29;20040;-79
2022/09/29 05:11:22;;;;;;;16.02;8.45;;;;;;;5.39;100.00;100068.38;4866216;29;20057;-79
2022/09/29 05:13:51;;;;;;;14.23;7.25;;;;;;;5.38;100.00;100066.63;4855510;29;20142;-78
2022/09/29 05:16:19;;;;;;;17.85;8.68;;;;;;;5.37;100.00;100069.22;4863587;29;20077;-77
2022/09/29 05:18:49;;;;;;;18.45;7.50;;;;;;;5.34;100.00;100075.28;4897764;29;20037;-78
2022/09/29 05:21:17;;;;;;;29.88;7.72;;;;;;;5.32;100.00;100077.00;4855772;29;20052;-77
2022/09/29 05:24:01;;;;;;;9.90;6.68;;;;;;;5.30;100.00;100081.34;4872907;29;20706;-77
2022/09/29 05:26:30;;;;;;;16.15;7.18;;;;;;;5.28;100.00;100072.59;4893410;29;20053;-78
2022/09/29 05:28:58;;;;;;;21.00;7.43;;;;;;;5.27;100.00;100082.19;4847778;29;20048;-79
2022/09/29 05:31:26;;;;;;;14.85;7.13;;;;;;;5.27;100.00;100095.25;4839837;29;20051;-77
2022/09/29 05:33:56;;;;;;;16.42;7.20;;;;;;;5.26;100.00;100092.63;4891882;29;20048;-78
2022/09/29 05:36:24;;;;;;;17.50;6.28;;;;;;;5.26;100.00;100090.88;4914449;29;20044;-78
2022/09/29 05:38:52;;;;;;;31.30;8.73;;;;;;;5.24;100.00;100091.72;4875935;29;20063;-77
2022/09/29 05:41:22;;;;;;;16.02;8.18;;;;;;;5.23;100.00;100096.03;4890192;29;20525;-78
2022/09/29 05:43:54;;;;;;;13.52;7.60;;;;;;;5.21;100.00;100096.91;4893265;29;20056;-80
2022/09/29 05:46:22;;;;;;;11.73;7.18;;;;;;;5.19;100.00;100098.59;4887576;29;20055;-80
2022/09/29 05:48:51;;;;;;;15.82;6.97;;;;;;;5.20;100.00;100106.47;4887782;29;20048;-77
2022/09/29 05:51:21;;;;;;;11.63;6.97;;;;;;;5.21;100.00;100102.13;4872125;29;20036;-78
2022/09/29 05:53:51;;;;;;;14.25;7.75;;;;;;;5.23;100.00;100103.88;4894434;29;20785;-77
2022/09/29 05:56:24;;;;;;;9.50;6.88;;;;;;;5.26;100.00;100110.91;4896877;29;20279;-78
2022/09/29 05:58:55;;;;;;;7.68;6.97;;;;;;;5.28;100.00;100111.78;4897765;29;20052;-78
2022/09/29 06:01:25;;;;;;;8.65;7.75;;;;;;;5.30;100.00;100109.22;4857168;29;20039;-78
2022/09/29 06:03:55;;;;;;;11.17;8.60;;;;;;;5.31;100.00;100109.19;4905005;29;20056;-78
2022/09/29 06:06:26;;;;;;;8.35;7.55;;;;;;;5.31;100.00;100117.03;4886663;29;20071;-77
2022/09/29 06:08:57;;;;;;;13.23;7.70;;;;;;;5.32;100.00;100113.59;4894696;29;20055;-78
2022/09/29 06:11:30;;;;;;;8.85;7.38;;;;;;;5.36;100.00;100115.38;4881420;29;20051;-80
2022/09/29 06:14:00;;;;;;;7.47;6.72;;;;;;;5.39;100.00;100125.88;4883163;29;20052;-79
2022/09/29 06:16:30;;;;;;;9.52;7.80;;;;;;;5.41;100.00;100123.28;4881512;29;20048;-79
2022/09/29 06:19:00;;;;;;;7.70;6.95;;;;;;;5.43;100.00;100126.78;4910534;29;20047;-77
2022/09/29 06:21:30;;;;;;;7.90;6.75;;;;;;;5.48;100.00;100130.31;4906039;29;20051;-78
2022/09/29 06:23:58;;;;;;;8.43;7.63;;;;;;;5.52;100.00;100118.16;4920417;29;20052;-78
2022/09/29 06:26:27;;;;;;;8.27;7.35;;;;;;;5.58;100.00;100124.34;4895403;29;20051;-79
2022/09/29 06:28:57;;;;;;;8.52;7.72;;;;;;;5.63;100.00;100132.25;4889435;29;20041;-79
2022/09/29 06:31:28;;;;;;;8.77;7.90;;;;;;;5.69;100.00;100131.44;4871095;29;20048;-79
2022/09/29 06:33:57;;;;;;;;;;;;;;;5.73;100.00;100133.22;4872829;29;20055;-79
2022/09/29 06:39:20;;;;;;;8.48;7.65;;;;;;;5.84;100.00;100135.13;4916510;29;20286;-78
2022/09/29 06:41:52;;;;;;;10.35;9.02;;;;;;;5.89;100.00;100134.28;4900681;29;20048;-79
2022/09/29 06:44:23;;;;;;;9.75;8.77;;;;;;;5.93;100.00;100143.91;4906099;29;20422;-78
2022/09/29 06:46:52;;;;;;;;;;;;;;;6.05;100.00;100136.25;4870295;29;20499;-77
2022/09/29 06:49:21;;;;;;;11.32;9.38;;;;;;;6.26;100.00;100135.56;4881222;29;20296;-77
2022/09/29 06:51:49;;;;;;;9.13;8.23;;;;;;;6.54;100.00;100130.56;4890757;29;20048;-78
2022/09/29 06:54:20;;;;;;;9.23;8.15;;;;;;;6.74;100.00;100135.97;4911720;29;20056;-78
2022/09/29 06:56:53;;;;;;;8.60;7.80;;;;;;;6.83;100.00;100139.53;4898634;29;20048;-78
2022/09/29 06:59:21;;;;;;;8.40;7.05;;;;;;;6.92;100.00;100143.94;4917583;29;20075;-78
2022/09/29 07:01:49;;;;;;;8.52;7.72;;;;;;;7.00;100.00;100139.63;4879243;29;20047;-77
2022/09/29 07:04:20;;;;;;;8.98;8.10;;;;;;;7.03;100.00;100144.91;4888097;29;20279;-78
2022/09/29 07:06:49;;;;;;;9.25;8.05;;;;;;;7.06;100.00;100146.66;4907195;29;20055;-80
2022/09/29 07:09:18;;;;;;;10.75;9.00;;;;;;;7.08;100.00;100144.91;4907118;29;20704;-79
2022/09/29 07:11:49;;;;;;;10.15;9.13;;;;;;;7.10;100.00;100155.41;4913065;29;20044;-78
2022/09/29 07:14:21;;;;;;;11.13;9.52;;;;;;;7.14;100.00;100157.19;4894980;29;20040;-78
2022/09/29 07:16:51;;;;;;;10.55;9.45;;;;;;;7.20;100.00;100152.88;4889051;29;20513;-78
2022/09/29 07:19:20;;;;;;;11.38;10.00;;;;;;;7.27;100.00;100152.88;4890481;29;20068;-78
2022/09/29 07:21:50;;;;;;;10.95;9.70;;;;;;;7.33;100.00;100158.16;4913474;29;20048;-78
2022/09/29 07:24:18;;;;;;;12.27;9.38;;;;;;;7.37;100.00;100166.06;4888844;29;20262;-77
2022/09/29 07:26:47;;;;;;;9.23;8.30;;;;;;;7.46;100.00;100161.72;4915493;29;20056;-78
2022/09/29 07:29:15;;;;;;;9.75;8.85;;;;;;;7.58;100.00;100167.00;4898176;29;20057;-78
2022/09/29 07:31:44;;;;;;;9.30;8.30;;;;;;;7.67;100.00;100169.69;4899950;29;20059;-78
2022/09/29 07:34:20;;;;;;;8.80;7.90;;;;;;;7.73;100.00;100167.09;4871639;29;20866;-78
2022/09/29 07:36:49;;;;;;;8.68;7.97;;;;;;;7.85;100.00;100174.13;4898411;29;20055;-78
2022/09/29 07:39:20;;;;;;;8.80;7.70;;;;;;;8.04;100.00;100161.94;4887764;29;20048;-78
2022/09/29 07:41:49;;;;;;;9.48;8.38;;;;;;;8.29;100.00;100177.75;4914833;29;20510;-78
2022/09/29 07:44:17;;;;;;;9.52;7.90;;;;;;;8.55;100.00;100159.44;4914327;29;20048;-77
2022/09/29 07:46:48;;;;;;;9.43;8.25;;;;;;;8.86;100.00;100169.94;4879793;29;20418;-78
2022/09/29 07:49:17;;;;;;;13.32;8.60;;;;;;;9.10;100.00;100172.53;4864948;29;20059;-78
2022/09/29 07:51:46;;;;;;;8.68;7.85;;;;;;;9.32;100.00;100175.13;4914443;29;20051;-77
2022/09/29 07:54:15;;;;;;;8.27;6.90;;;;;;;9.48;100.00;100174.19;4889469;29;20049;-79
2022/09/29 07:56:43;;;;;;;9.23;8.25;;;;;;;9.63;100.00;100183.78;4883456;29;20036;-77
2022/09/29 07:59:12;;;;;;;8.90;8.00;;;;;;;9.75;100.00;100181.13;4892274;29;20366;-77
2022/09/29 08:01:40;;;;;;;10.93;8.45;;;;;;;9.85;100.00;100188.94;4871737;29;20049;-77
2022/09/29 08:04:09;;;;;;;11.93;8.73;;;;;;;9.90;100.00;100189.81;4850328;29;20072;-79
2022/09/29 08:06:38;;;;;;;11.35;9.60;;;;;;;9.96;100.00;100197.69;4839035;29;20428;-78
2022/09/29 08:09:07;;;;;;;13.50;10.13;;;;;;;10.04;100.00;100193.28;4859381;29;20253;-80
2022/09/29 08:11:38;;;;;;;12.00;10.27;;;;;;;10.14;100.00;100188.81;4868717;29;20037;-79
2022/09/29 08:14:07;;;;;;;14.73;10.88;;;;;;;10.22;100.00;100194.03;4891470;29;20149;-79
2022/09/29 08:16:36;;;;;;;13.27;10.55;;;;;;;10.34;100.00;100200.16;4857392;29;20060;-77
2022/09/29 08:19:06;;;;;;;13.27;9.80;;;;;;;10.43;100.00;100201.84;4869222;29;20279;-79
2022/09/29 08:21:37;;;;;;;14.53;10.53;;;;;;;10.55;100.00;100198.25;4839254;29;20494;-78
2022/09/29 08:24:06;;;;;;;13.30;10.40;;;;;;;10.69;100.00;100201.66;4862042;29;20056;-78
2022/09/29 08:26:36;;;;;;;15.27;10.43;;;;;;;10.85;100.00;100201.53;4854789;29;20494;-78
2022/09/29 08:29:12;;;;;;;14.45;11.95;;;;;;;10.99;100.00;100206.69;4892693;29;20134;-78
2022/09/29 08:31:45;;;;;;;15.23;11.75;;;;;;;11.06;100.00;100206.63;4865870;29;20044;-78
2022/09/29 08:34:14;;;;;;;18.38;13.35;;;;;;;11.07;100.00;100204.84;4887173;29;20079;-78
2022/09/29 08:36:43;;;;;;;21.42;14.30;;;;;;;11.09;100.00;100205.72;4887647;29;20036;-78
2022/09/29 08:39:11;;;;;;;21.60;15.10;;;;;;;11.12;100.00;100210.97;4839724;29;20036;-77
2022/09/29 08:41:51;;;;;;;22.83;14.60;;;;;;;11.16;100.00;100210.06;4870546;29;20036;-78
2022/09/29 08:44:53;;;;;;;19.90;13.95;;;;;;;11.28;100.00;100209.06;4894938;29;20056;-77
2022/09/29 08:47:40;;;;;;;19.67;14.15;;;;;;;11.42;100.00;100211.56;4896372;29;20056;-78
2022/09/29 08:50:32;;;;;;;20.83;14.60;;;;;;;11.63;100.00;100211.31;4879895;29;20059;-78
2022/09/29 08:53:07;;;;;;;13.75;12.20;;;;;;;11.74;100.00;100221.78;4865295;29;20175;-78
2022/09/29 08:56:03;;;;;;;15.52;12.80;;;;;;;11.79;100.00;100230.47;4922184;29;20059;-78
2022/09/29 08:58:33;;;;;;;15.63;12.77;;;;;;;11.79;100.00;100226.97;4931102;29;20044;-78
2022/09/29 09:01:15;;;;;;;14.48;12.38;;;;;;;11.81;100.00;100226.06;4897906;29;20047;-78
2022/09/29 09:04:00;;;;;;;14.40;11.75;;;;;;;11.90;100.00;100230.41;4935579;29;20047;-78
2022/09/29 09:06:56;;;;;;;13.32;11.40;;;;;;;11.99;100.00;100235.56;4898227;29;20047;-78
2022/09/29 09:09:40;;;;;;;14.23;11.70;;;;;;;12.03;100.00;100231.13;4868048;29;20051;-78
2022/09/29 09:12:21;;;;;;;15.68;11.57;;;;;;;12.08;100.00;100238.09;4907628;29;20063;-77
2022/09/29 09:14:59;;;;;;;16.83;13.00;;;;;;;12.16;100.00;100237.13;4914593;29;20086;-78
2022/09/29 09:17:59;;;;;;;12.57;11.20;;;;;;;12.21;100.00;100230.91;4913517;29;20066;-78
2022/09/29 09:20:40;;;;;;;11.35;10.15;;;;;;;12.26;100.00;100228.19;4925773;29;20502;-78
2022/09/29 09:23:15;;;;;;;13.10;10.57;;;;;;;12.33;100.00;100231.63;4921554;29;20046;-78
2022/09/29 09:25:49;;;;;;;14.30;10.82;;;;;;;12.37;100.00;100241.25;4904987;29;20042;-78
2022/09/29 09:28:35;;;;;;;11.05;9.95;;;;;;;12.36;100.00;100239.50;4901770;29;20059;-77
2022/09/29 09:31:18;;;;;;;11.38;9.85;;;;;;;12.39;100.00;100236.81;4928541;29;20436;-78
2022/09/29 09:33:56;;;;;;;9.85;8.63;;;;;;;12.40;100.00;100231.53;4927477;29;20051;-78
2022/09/29 09:36:44;;;;;;;15.80;10.23;;;;;;;12.43;100.00;100235.88;4914280;29;20042;-78
2022/09/29 09:39:19;;;;;;;11.25;10.07;;;;;;;12.47;100.00;100233.16;4898061;29;20063;-78
2022/09/29 09:41:53;;;;;;;13.15;10.63;;;;;;;12.57;100.00;100233.03;4897543;29;20056;-79
2022/09/29 09:44:33;;;;;;;11.68;10.48;;;;;;;12.63;100.00;100236.47;4900678;29;20051;-78
2022/09/29 09:47:27;;;;;;;10.27;9.27;;;;;;;12.67;100.00;100239.94;4908718;29;20040;-77
2022/09/29 09:50:02;;;;;;;11.75;10.07;;;;;;;12.73;100.00;100239.84;4901478;29;20054;-77
2022/09/29 09:53:03;;;;;;;12.80;10.40;;;;;;;12.81;100.00;100242.34;4931106;29;20047;-78
2022/09/29 09:55:42;;;;;;;11.18;10.07;;;;;;;12.91;100.00;100248.38;4895546;29;20052;-78
2022/09/29 09:58:36;;;;;;;9.68;8.68;;;;;;;12.98;100.00;100240.31;4897787;29;20051;-78
2022/09/29 10:01:07;;;;;;;10.23;8.93;;;;;;;13.06;100.00;100246.38;4915595;29;20047;-77
2022/09/29 10:03:36;;;;;;;11.80;9.38;;;;;;;13.12;100.00;100245.38;4916638;29;20051;-80
2022/09/29 10:06:06;;;;;;;8.45;7.55;;;;;;;13.20;100.00;100245.25;4909184;29;20060;-77
2022/09/29 10:08:40;;;;;;;12.63;8.48;;;;;;;13.27;100.00;100247.75;4908808;29;20502;-79
2022/09/29 10:11:30;;;;;;;12.25;9.30;;;;;;;13.39;100.00;100251.13;4882309;29;20170;-79
2022/09/29 10:14:10;;;;;;;12.55;9.45;;;;;;;13.45;100.00;100251.00;4908665;29;20070;-79
2022/09/29 10:16:53;;;;;;;11.98;8.25;;;;;;;13.43;100.00;100243.09;4880358;28;20502;-78
2022/09/29 10:19:50;;;;;;;12.10;7.25;;;;;;;13.40;100.00;100255.50;4886877;29;20043;-78
2022/09/29 10:22:20;;;;;;;11.90;6.45;;;;;;;13.31;100.00;100260.97;4901978;29;20055;-78
2022/09/29 10:25:06;;;;;;;8.88;5.57;;;;;;;13.36;100.00;100259.09;4882401;29;20036;-78
2022/09/29 10:27:39;;;;;;;6.47;5.25;;;;;;;13.36;100.00;100252.03;4924686;29;20493;-77
2022/09/29 10:30:34;;;;;;;4.35;3.30;;;;;;;13.31;100.00;100263.59;4908063;29;20044;-78
2022/09/29 10:33:05;;;;;;;4.57;3.20;;;;;;;13.30;100.00;100261.84;4914083;29;20283;-77
2022/09/29 10:35:40;;;;;;;4.13;2.92;;;;;;;13.22;100.00;100264.63;4895324;29;20040;-78
2022/09/29 10:38:25;;;;;;;;;;;;;;;13.15;100.00;100262.97;4902715;29;20608;-77
2022/09/29 10:41:04;;;;;;;5.03;3.28;;;;;;;13.13;100.00;100265.63;4903657;29;19929;-80
2022/09/29 10:43:40;;;;;;;5.30;3.42;;;;;;;13.17;100.00;100269.09;4924801;29;20055;-79
2022/09/29 10:46:35;;;;;;;3.78;3.42;;;;;;;13.15;100.00;100268.25;4912981;29;20177;-78
2022/09/29 10:49:13;;;;;;;5.55;4.10;;;;;;;13.20;100.00;100267.28;4925564;29;20051;-78
2022/09/29 10:51:55;;;;;;;4.80;3.58;;;;;;;13.25;100.00;100261.91;4911900;29;20536;-78
2022/09/29 10:54:25;;;;;;;4.75;3.65;;;;;;;13.23;100.00;100264.59;4907257;29;20044;-77
2022/09/29 10:56:55;;;;;;;5.15;3.78;;;;;;;13.19;100.00;100265.53;4882070;29;20062;-79
2022/09/29 10:59:24;;;;;;;3.58;3.03;;;;;;;13.16;100.00;100270.88;4907819;29;20047;-79
2022/09/29 11:01:57;;;;;;;4.28;2.88;;;;;;;13.16;100.00;100272.66;4917551;29;20052;-80
2022/09/29 11:04:28;;;;;;;3.83;3.33;;;;;;;13.19;100.00;100278.75;4922669;29;20040;-79
2022/09/29 11:07:05;;;;;;;;;;;;;;;13.33;100.00;100275.06;4906451;29;20043;-80
2022/09/29 11:09:39;;;;;;;3.58;2.90;;;;;;;13.48;100.00;100279.19;4920353;29;19929;-79
2022/09/29 11:12:26;;;;;;;3.85;3.20;;;;;;;13.52;100.00;100284.41;4910399;29;20166;-78
2022/09/29 11:14:56;;;;;;;3.35;2.88;;;;;;;13.53;100.00;100277.34;4884436;29;20055;-80
2022/09/29 11:17:36;;;;;;;4.85;2.75;;;;;;;13.48;100.00;100288.03;4910253;29;20040;-79
2022/09/29 11:20:13;;;;;;;1.85;1.75;;;;;;;13.42;100.00;100282.81;4927912;29;20529;-79
2022/09/29 11:23:03;;;;;;;2.22;1.80;;;;;;;13.38;100.00;100291.72;4911857;29;20781;-79
2022/09/29 11:25:54;;;;;;;6.45;1.92;;;;;;;13.35;100.00;100286.50;4890591;29;20044;-79
2022/09/29 11:28:32;;;;;;;2.13;1.92;;;;;;;13.36;100.00;100289.09;4929894;29;20051;-79
2022/09/29 11:31:25;;;;;;;1.58;1.48;;;;;;;13.35;100.00;100290.00;4883366;29;20330;-79
2022/09/29 11:34:31;;;;;;;1.50;1.40;;;;;;;13.34;100.00;100290.03;4900812;29;20052;-80
2022/09/29 11:37:05;;;;;;;4.13;1.30;;;;;;;13.35;100.00;100286.50;4928215;29;20048;-80
2022/09/29 11:39:46;;;;;;;1.50;1.40;;;;;;;13.39;100.00;100288.19;4907138;29;20056;-79
2022/09/29 11:42:31;;;;;;;;;;;;;;;13.48;100.00;100285.38;4922006;29;20063;-79
2022/09/29 11:45:07;;;;;;;2.70;2.03;;;;;;;13.52;100.00;100287.06;4903512;29;20149;-79
2022/09/29 11:48:04;;;;;;;3.00;1.70;;;;;;;13.52;100.00;100289.72;4905755;29;20040;-80
2022/09/29 11:51:08;;;;;;;2.00;1.60;;;;;;;13.50;100.00;100283.56;4912029;29;20408;-79
2022/09/29 11:53:58;;;;;;;2.13;1.50;;;;;;;13.51;100.00;100292.38;4928981;29;20390;-79
2022/09/29 11:56:51;;;;;;;1.48;1.38;;;;;;;13.63;100.00;100282.44;4919911;29;20051;-79